Terminal Aerodrome Forecast
Issued by NWS

Home | Current Version | Previous Version | Text Only | Print | Product List | Glossary On
Versions: 1 2 3 4 5 6 7 8 9 10 11 12 13 14 15 16 17 18 19 20 21 22
000
FTUS44 KEWX 071405 AAA
TAFSSF
TAF AMD
KSSF 071405Z 0714/0812 16009KT P6SM SCT014 BKN250
     FM071700 15016KT P6SM SCT040
     FM080400 13012KT P6SM BKN027
     FM080600 14010KT P6SM BKN015=

USA.gov is the U.S. government's official web portal to all federal, state and local government web resources and services.